createdAt,value
2022-11-03T00:01:36.236Z,2.39
2022-11-03T00:04:04.537Z,2.45
2022-11-03T00:06:32.794Z,2.42
2022-11-03T00:09:01.334Z,2.37
2022-11-03T00:11:30.115Z,2.31
2022-11-03T00:13:59.663Z,2.34
2022-11-03T00:16:28.083Z,2.35
2022-11-03T00:18:56.723Z,2.41
2022-11-03T00:21:25.014Z,2.35
2022-11-03T00:23:53.267Z,2.40
2022-11-03T00:26:22.626Z,2.39
2022-11-03T00:28:52.480Z,2.39
2022-11-03T00:31:23.403Z,2.35
2022-11-03T00:33:51.642Z,2.43
2022-11-03T00:36:21.602Z,2.34
2022-11-03T00:38:49.982Z,2.36
2022-11-03T00:41:20.487Z,2.24
2022-11-03T00:43:49.365Z,2.19
2022-11-03T00:46:18.033Z,2.25
2022-11-03T00:48:47.633Z,2.17
2022-11-03T00:51:17.179Z,2.36
2022-11-03T00:53:47.554Z,2.44
2022-11-03T00:56:17.141Z,2.46
2022-11-03T00:58:45.794Z,2.50
2022-11-03T01:01:16.142Z,2.58
2022-11-03T01:04:08.224Z,2.57
2022-11-03T01:06:53.896Z,2.54
2022-11-03T01:09:24.004Z,2.55
2022-11-03T01:11:57.562Z,2.57
2022-11-03T01:14:26.903Z,2.63
2022-11-03T01:16:55.405Z,2.51
2022-11-03T01:19:25.542Z,2.57
2022-11-03T01:21:53.975Z,2.67
2022-11-03T01:24:22.526Z,2.68
2022-11-03T01:26:50.727Z,2.63
2022-11-03T01:29:19.253Z,2.56
2022-11-03T01:31:47.634Z,2.60
2022-11-03T01:34:17.364Z,2.62
2022-11-03T01:36:47.236Z,2.58
2022-11-03T01:39:16.426Z,2.64
2022-11-03T01:41:46.944Z,2.66
2022-11-03T01:44:32.700Z,2.62
2022-11-03T01:47:12.708Z,2.69
2022-11-03T01:49:45.538Z,2.69
2022-11-03T01:52:19.117Z,2.76
2022-11-03T01:54:50.297Z,2.83
2022-11-03T01:57:22.658Z,2.90
2022-11-03T01:59:51.278Z,2.88
2022-11-03T02:02:19.798Z,2.99
2022-11-03T02:04:48.375Z,3.06
2022-11-03T02:07:22.698Z,3.09
2022-11-03T02:09:50.966Z,3.16
2022-11-03T02:12:23.786Z,3.15
2022-11-03T02:14:54.996Z,3.21
2022-11-03T02:17:24.096Z,3.19
2022-11-03T02:19:54.239Z,3.20
2022-11-03T02:22:57.773Z,3.17
2022-11-03T02:25:36.840Z,3.21
2022-11-03T02:28:06.385Z,3.22
2022-11-03T02:30:38.057Z,3.25
2022-11-03T02:33:12.666Z,3.33
2022-11-03T02:35:44.607Z,3.23
2022-11-03T02:38:15.678Z,3.29
2022-11-03T02:40:49.555Z,3.33
2022-11-03T02:43:20.516Z,3.32
2022-11-03T02:45:49.696Z,3.24
2022-11-03T02:48:19.777Z,3.23
2022-11-03T02:50:49.041Z,3.27
2022-11-03T02:53:17.501Z,3.29
2022-11-03T02:55:54.197Z,3.39
2022-11-03T02:58:26.578Z,3.38
2022-11-03T03:00:57.135Z,3.42
2022-11-03T03:03:28.124Z,3.42
2022-11-03T03:05:59.925Z,3.44
2022-11-03T03:08:28.815Z,3.46
2022-11-03T03:11:00.504Z,3.41
2022-11-03T03:13:29.165Z,3.50
2022-11-03T03:16:07.197Z,3.45
2022-11-03T03:18:43.922Z,3.44
2022-11-03T03:21:15.039Z,3.49
2022-11-03T03:23:49.907Z,3.55
2022-11-03T03:26:23.325Z,3.64
2022-11-03T03:28:55.233Z,3.61
2022-11-03T03:31:24.107Z,3.65
2022-11-03T03:33:59.792Z,3.62
2022-11-03T03:36:40.185Z,3.61
2022-11-03T03:39:09.994Z,3.55
2022-11-03T03:41:39.865Z,3.51
2022-11-03T03:44:10.476Z,3.56
2022-11-03T03:46:40.906Z,3.49
2022-11-03T03:49:09.268Z,3.54
2022-11-03T03:51:38.375Z,3.38
2022-11-03T03:54:06.685Z,3.39
2022-11-03T03:56:38.514Z,3.45
2022-11-03T03:59:08.714Z,3.48
2022-11-03T04:01:36.947Z,3.39
2022-11-03T04:04:05.587Z,3.39
2022-11-03T04:06:33.938Z,3.30
2022-11-03T04:09:02.056Z,3.29
2022-11-03T04:11:47.705Z,3.17
2022-11-03T04:14:34.955Z,3.01
2022-11-03T04:17:20.594Z,2.94
2022-11-03T04:20:06.075Z,3.02
2022-11-03T04:22:35.297Z,2.96
2022-11-03T04:25:03.532Z,2.96
2022-11-03T04:27:33.524Z,2.97
2022-11-03T04:30:08.637Z,3.02
2022-11-03T04:32:37.148Z,3.06
2022-11-03T04:35:12.606Z,3.04
2022-11-03T04:37:45.007Z,3.13
2022-11-03T04:40:17.655Z,3.06
2022-11-03T04:42:46.194Z,3.10
2022-11-03T04:45:24.294Z,3.11
2022-11-03T04:47:53.702Z,3.05
2022-11-03T04:50:23.864Z,3.03
2022-11-03T04:52:56.655Z,2.90
2022-11-03T04:55:24.926Z,2.96
2022-11-03T04:57:56.636Z,2.99
2022-11-03T05:00:26.382Z,2.99
2022-11-03T05:02:56.217Z,3.00
2022-11-03T05:05:26.761Z,2.85
2022-11-03T05:07:56.045Z,2.92
2022-11-03T05:10:26.477Z,2.96
2022-11-03T05:12:55.833Z,3.00
2022-11-03T05:15:31.777Z,3.00
2022-11-03T05:18:01.606Z,3.00
2022-11-03T05:20:36.159Z,3.03
2022-11-03T05:23:06.098Z,2.98
2022-11-03T05:25:41.090Z,2.91
2022-11-03T05:28:21.786Z,2.79
2022-11-03T05:30:52.644Z,2.86
2022-11-03T05:33:24.154Z,2.85
2022-11-03T05:35:52.685Z,2.84
2022-11-03T05:38:22.528Z,2.80
2022-11-03T05:40:54.354Z,2.82
2022-11-03T05:43:22.895Z,2.73
2022-11-03T05:45:55.124Z,2.67
2022-11-03T05:48:31.015Z,2.55
2022-11-03T05:51:00.642Z,2.69
2022-11-03T05:53:31.487Z,2.74
2022-11-03T05:56:02.457Z,2.65
2022-11-03T05:58:32.855Z,2.41
2022-11-03T06:01:07.034Z,2.50
2022-11-03T06:03:37.710Z,2.49
2022-11-03T06:06:14.887Z,2.46
2022-11-03T06:08:46.005Z,2.46
2022-11-03T06:11:23.464Z,2.57
2022-11-03T06:13:51.599Z,2.58
2022-11-03T06:16:34.146Z,2.65
2022-11-03T06:19:03.326Z,2.63
2022-11-03T06:21:32.208Z,2.72
2022-11-03T06:24:00.764Z,2.80
2022-11-03T06:26:29.273Z,2.88
2022-11-03T06:28:57.500Z,2.79
2022-11-03T06:31:30.336Z,2.77
2022-11-03T06:33:59.307Z,2.70
2022-11-03T06:36:29.654Z,2.77
2022-11-03T06:38:59.386Z,2.88
2022-11-03T06:41:29.613Z,2.88
2022-11-03T06:43:57.876Z,2.87
2022-11-03T06:46:28.035Z,3.01
2022-11-03T06:49:00.106Z,2.70
2022-11-03T06:51:30.029Z,2.65
2022-11-03T06:54:00.225Z,2.73
2022-11-03T06:56:31.704Z,2.67
2022-11-03T06:59:00.487Z,2.79
2022-11-03T07:01:32.793Z,3.03
2022-11-03T07:04:03.137Z,3.22
2022-11-03T07:06:33.944Z,3.30
2022-11-03T07:09:05.022Z,3.15
2022-11-03T07:11:36.444Z,3.39
2022-11-03T07:14:12.724Z,3.62
2022-11-03T07:16:44.754Z,3.78
2022-11-03T07:19:16.486Z,3.85
2022-11-03T07:21:47.293Z,3.87
2022-11-03T07:24:19.853Z,3.79
2022-11-03T07:26:48.245Z,3.87
2022-11-03T07:29:20.374Z,3.98
2022-11-03T07:31:51.643Z,3.99
2022-11-03T07:34:22.865Z,3.96
2022-11-03T07:36:55.758Z,4.04
2022-11-03T07:39:24.590Z,3.90
2022-11-03T07:41:53.157Z,3.88
2022-11-03T07:44:21.974Z,3.90
2022-11-03T07:46:52.359Z,4.00
2022-11-03T07:49:28.835Z,4.20
2022-11-03T07:51:58.359Z,3.99
2022-11-03T07:54:30.695Z,4.23
2022-11-03T07:57:00.561Z,4.22
2022-11-03T07:59:30.837Z,4.10
2022-11-03T08:02:00.931Z,4.15
2022-11-03T08:04:31.024Z,4.00
2022-11-03T08:06:59.265Z,4.13
2022-11-03T08:09:27.474Z,4.23
2022-11-03T08:11:55.634Z,4.28
2022-11-03T08:14:23.835Z,4.16
2022-11-03T08:16:51.955Z,4.27
2022-11-03T08:19:21.513Z,4.37
2022-11-03T08:21:50.021Z,4.30
2022-11-03T08:24:18.184Z,4.39
2022-11-03T08:26:46.426Z,4.31
2022-11-03T08:29:14.736Z,4.60
2022-11-03T08:31:42.917Z,4.86
2022-11-03T08:34:11.085Z,5.10
2022-11-03T08:36:40.733Z,5.71
2022-11-03T08:39:08.915Z,6.99
2022-11-03T08:41:37.095Z,7.59
2022-11-03T08:44:05.701Z,7.05
2022-11-03T08:46:33.934Z,6.98
2022-11-03T08:49:02.776Z,6.55
2022-11-03T08:51:30.956Z,6.76
2022-11-03T08:54:00.484Z,6.89
2022-11-03T08:56:28.664Z,6.79
2022-11-03T08:58:56.855Z,6.80
2022-11-03T09:01:25.050Z,6.98
2022-11-03T09:03:53.872Z,7.10
2022-11-03T09:06:22.084Z,7.64
2022-11-03T09:11:40.222Z,7.73
2022-11-03T09:14:08.414Z,7.75
2022-11-03T09:16:36.596Z,7.68
2022-11-03T09:19:04.795Z,8.03
2022-11-03T09:21:32.913Z,8.18
2022-11-03T09:24:01.134Z,8.41
2022-11-03T09:26:29.554Z,8.37
2022-11-03T09:28:59.078Z,8.22
2022-11-03T09:31:28.695Z,8.35
2022-11-03T09:33:57.332Z,8.41
2022-11-03T09:36:25.635Z,8.42
2022-11-03T09:38:53.815Z,8.59
2022-11-03T09:41:27.850Z,8.76
2022-11-03T09:44:04.913Z,8.94
2022-11-03T09:46:33.395Z,9.20
2022-11-03T09:49:01.525Z,9.14
2022-11-03T09:51:29.995Z,9.15
2022-11-03T09:53:59.734Z,9.25
2022-11-03T09:56:28.192Z,9.30
2022-11-03T09:58:56.366Z,9.19
2022-11-03T10:01:26.427Z,9.23
2022-11-03T10:03:57.638Z,9.19
2022-11-03T10:06:25.793Z,9.55
2022-11-03T10:08:54.225Z,9.26
2022-11-03T10:11:22.363Z,9.40
2022-11-03T10:13:53.434Z,9.45
2022-11-03T10:16:23.424Z,9.43
2022-11-03T10:18:53.755Z,9.69
2022-11-03T10:21:24.826Z,9.85
2022-11-03T10:23:53.032Z,10.05
2022-11-03T10:26:23.396Z,10.03
2022-11-03T10:29:04.036Z,9.85
2022-11-03T10:31:36.856Z,9.98
2022-11-03T10:34:07.007Z,10.01
2022-11-03T10:36:35.687Z,10.03
2022-11-03T10:39:25.354Z,10.02
2022-11-03T10:41:57.856Z,10.36
2022-11-03T10:44:28.485Z,10.18
2022-11-03T10:47:00.597Z,10.16
2022-11-03T10:49:31.518Z,10.26
2022-11-03T10:52:07.815Z,10.09
2022-11-03T10:54:38.136Z,10.12
2022-11-03T10:57:06.555Z,10.28
2022-11-03T10:59:37.744Z,10.46
2022-11-03T11:02:16.332Z,10.35
2022-11-03T11:04:47.296Z,10.32
2022-11-03T11:07:21.714Z,10.30
2022-11-03T11:09:49.993Z,10.33
2022-11-03T11:12:19.499Z,10.33
2022-11-03T11:14:55.984Z,10.59
2022-11-03T11:17:47.837Z,10.25
2022-11-03T11:20:41.683Z,10.48
2022-11-03T11:23:49.175Z,10.72
2022-11-03T11:26:41.393Z,10.64
2022-11-03T11:29:43.281Z,10.73
2022-11-03T11:32:48.439Z,10.73
2022-11-03T11:36:04.347Z,10.42
2022-11-03T11:39:09.491Z,10.79
2022-11-03T11:42:13.540Z,10.92
2022-11-03T11:44:59.358Z,10.92
2022-11-03T11:47:49.216Z,10.86
2022-11-03T11:50:32.785Z,10.83
2022-11-03T11:53:11.424Z,10.95
2022-11-03T11:55:47.066Z,11.13
2022-11-03T11:58:39.429Z,11.06
2022-11-03T12:01:23.830Z,11.07
2022-11-03T12:03:53.578Z,11.24
2022-11-03T12:06:34.679Z,11.15
2022-11-03T12:09:07.441Z,11.34
2022-11-03T12:11:46.009Z,11.66
2022-11-03T12:14:25.808Z,11.67
2022-11-03T12:16:54.228Z,11.69
2022-11-03T12:19:42.104Z,11.64
2022-11-03T12:22:11.484Z,11.66
2022-11-03T12:24:50.881Z,11.83
2022-11-03T12:27:36.897Z,12.23
2022-11-03T12:30:08.836Z,12.27
2022-11-03T12:32:36.976Z,12.29
2022-11-03T12:35:06.107Z,12.52
2022-11-03T12:37:34.267Z,12.62
2022-11-03T12:40:02.467Z,12.15
2022-11-03T12:42:32.136Z,12.21
2022-11-03T12:45:00.263Z,12.52
2022-11-03T12:47:28.504Z,13.06
2022-11-03T12:49:56.607Z,13.21
2022-11-03T12:52:24.763Z,13.61
2022-11-03T12:54:52.885Z,13.47
2022-11-03T12:57:21.227Z,13.28
2022-11-03T12:59:51.578Z,13.63
2022-11-03T13:02:19.872Z,13.57
2022-11-03T13:04:48.073Z,13.46
2022-11-03T13:07:20.390Z,13.23
2022-11-03T13:09:52.377Z,13.26
2022-11-03T13:12:32.576Z,12.77
2022-11-03T13:15:03.175Z,12.67
2022-11-03T13:17:40.196Z,12.53
2022-11-03T13:20:16.432Z,12.59
2022-11-03T13:22:44.774Z,12.82
2022-11-03T13:25:12.921Z,12.66
2022-11-03T13:27:41.245Z,12.23
2022-11-03T13:30:12.243Z,12.24
2022-11-03T13:32:40.333Z,12.25
2022-11-03T13:35:13.720Z,11.91
2022-11-03T13:37:42.716Z,11.71
2022-11-03T13:40:29.444Z,11.71
2022-11-03T13:43:00.507Z,11.50
2022-11-03T13:45:30.415Z,11.37
2022-11-03T13:50:47.046Z,11.42
2022-11-03T13:56:08.610Z,11.24
2022-11-03T14:01:27.356Z,11.09
2022-11-03T14:06:43.904Z,10.88
2022-11-03T14:09:12.063Z,10.82
2022-11-03T14:11:57.703Z,10.69
2022-11-03T14:14:25.823Z,10.68
2022-11-03T14:16:55.408Z,10.69
2022-11-03T14:19:30.803Z,10.66
2022-11-03T14:22:01.725Z,10.60
2022-11-03T14:24:29.892Z,10.46
2022-11-03T14:26:58.005Z,10.45
2022-11-03T14:29:27.222Z,10.47
2022-11-03T14:31:56.774Z,10.39
2022-11-03T14:34:25.012Z,10.30
2022-11-03T14:36:53.344Z,10.20
2022-11-03T14:39:21.854Z,10.09
2022-11-03T14:42:05.383Z,10.02
2022-11-03T14:44:34.394Z,10.00
2022-11-03T14:47:05.053Z,9.95
2022-11-03T14:49:33.975Z,9.89
2022-11-03T14:52:02.925Z,9.82
2022-11-03T14:54:31.798Z,9.77
2022-11-03T14:57:00.295Z,9.74
2022-11-03T14:59:28.443Z,9.68
2022-11-03T15:01:56.981Z,9.59
2022-11-03T15:04:27.136Z,9.59
2022-11-03T15:06:55.793Z,9.55
2022-11-03T15:09:24.134Z,9.48
2022-11-03T15:11:52.239Z,9.44
2022-11-03T15:14:20.567Z,9.44
2022-11-03T15:16:49.161Z,9.37
2022-11-03T15:19:17.503Z,9.27
2022-11-03T15:21:47.063Z,9.20
2022-11-03T15:27:03.367Z,9.04
2022-11-03T15:29:31.508Z,9.02
2022-11-03T15:31:59.698Z,8.95
2022-11-03T15:34:27.825Z,8.87
2022-11-03T15:36:58.822Z,8.82
2022-11-03T15:39:29.917Z,8.78
2022-11-03T15:42:00.704Z,8.67
2022-11-03T15:44:28.953Z,8.59
2022-11-03T15:46:57.888Z,8.58
2022-11-03T15:49:26.207Z,8.51
2022-11-03T15:51:54.303Z,8.46
2022-11-03T15:54:24.012Z,8.45
2022-11-03T15:56:52.315Z,8.41
2022-11-03T15:59:20.818Z,8.36
2022-11-03T16:01:49.447Z,8.37
2022-11-03T16:04:17.787Z,8.34
2022-11-03T16:07:06.656Z,8.33
2022-11-03T16:09:35.535Z,8.29
2022-11-03T16:12:03.708Z,8.27
2022-11-03T16:14:31.913Z,8.20
2022-11-03T16:17:00.104Z,8.19
2022-11-03T16:19:28.335Z,8.13
2022-11-03T16:21:56.484Z,8.13
2022-11-03T16:24:29.666Z,8.05
2022-11-03T16:27:05.144Z,8.08
2022-11-03T16:29:33.277Z,8.08
2022-11-03T16:32:01.474Z,8.08
2022-11-03T16:34:29.628Z,8.05
2022-11-03T16:36:57.917Z,8.03
2022-11-03T16:39:26.052Z,8.00
2022-11-03T16:41:55.397Z,8.01
2022-11-03T16:44:25.084Z,7.95
2022-11-03T16:46:53.315Z,7.97
2022-11-03T16:49:21.554Z,7.94
2022-11-03T16:51:49.805Z,7.91
2022-11-03T16:54:17.972Z,7.93
2022-11-03T16:56:50.582Z,7.90
2022-11-03T16:59:24.502Z,7.90
2022-11-03T17:01:54.349Z,7.91
2022-11-03T17:04:22.695Z,7.89
2022-11-03T17:06:50.850Z,7.91
2022-11-03T17:09:19.015Z,7.91
2022-11-03T17:11:47.405Z,7.83
2022-11-03T17:14:15.831Z,7.77
2022-11-03T17:16:46.761Z,7.78
2022-11-03T17:19:16.725Z,7.77
2022-11-03T17:21:45.304Z,7.71
2022-11-03T17:24:13.759Z,7.72
2022-11-03T17:26:51.501Z,7.67
2022-11-03T17:29:21.524Z,7.60
2022-11-03T17:31:51.028Z,7.58
2022-11-03T17:34:24.814Z,7.52
2022-11-03T17:36:54.136Z,7.49
2022-11-03T17:39:29.456Z,7.56
2022-11-03T17:42:03.434Z,7.57
2022-11-03T17:44:32.132Z,7.61
2022-11-03T17:47:00.384Z,7.64
2022-11-03T17:49:30.044Z,7.62
2022-11-03T17:51:59.573Z,7.69
2022-11-03T17:54:29.623Z,7.64
2022-11-03T17:56:58.175Z,7.61
2022-11-03T17:59:26.524Z,7.61
2022-11-03T18:01:55.886Z,7.56
2022-11-03T18:04:24.677Z,7.55
2022-11-03T18:06:54.382Z,7.47
2022-11-03T18:09:23.184Z,7.50
2022-11-03T18:12:08.815Z,7.50
2022-11-03T18:14:36.967Z,7.49
2022-11-03T18:17:05.184Z,7.56
2022-11-03T18:19:33.406Z,7.57
2022-11-03T18:22:03.093Z,7.60
2022-11-03T18:24:34.533Z,7.56
2022-11-03T18:27:02.746Z,7.61
2022-11-03T18:29:31.024Z,7.46
2022-11-03T18:32:01.232Z,7.37
2022-11-03T18:34:29.704Z,7.32
2022-11-03T18:36:58.046Z,7.25
2022-11-03T18:39:30.677Z,7.24
2022-11-03T18:41:58.903Z,7.19
2022-11-03T18:44:29.255Z,7.15
2022-11-03T18:46:58.214Z,7.10
2022-11-03T18:49:27.611Z,7.07
2022-11-03T18:52:02.817Z,7.06
2022-11-03T18:54:34.728Z,7.03
2022-11-03T18:57:03.254Z,7.01
2022-11-03T18:59:33.183Z,7.02
2022-11-03T19:02:01.586Z,7.00
2022-11-03T19:04:32.045Z,6.99
2022-11-03T19:07:00.644Z,7.01
2022-11-03T19:09:28.884Z,6.99
2022-11-03T19:11:59.214Z,7.08
2022-11-03T19:14:31.544Z,7.09
2022-11-03T19:17:21.760Z,7.06
2022-11-03T19:19:48.165Z,7.05
2022-11-03T19:22:18.155Z,7.06
2022-11-03T19:24:46.754Z,7.04
2022-11-03T19:27:18.905Z,7.05
2022-11-03T19:29:47.536Z,6.97
2022-11-03T19:32:20.392Z,6.94
2022-11-03T19:34:51.548Z,6.87
2022-11-03T19:37:19.711Z,6.89
2022-11-03T19:39:48.614Z,6.88
2022-11-03T19:42:33.227Z,6.86
2022-11-03T19:45:02.958Z,6.87
2022-11-03T19:47:34.864Z,6.85
2022-11-03T19:50:04.704Z,6.90
2022-11-03T19:52:33.320Z,6.90
2022-11-03T19:55:05.785Z,6.86
2022-11-03T19:57:35.324Z,6.88
2022-11-03T20:00:03.549Z,6.90
2022-11-03T20:02:31.822Z,6.97
2022-11-03T20:05:00.311Z,7.00
2022-11-03T20:07:31.902Z,7.00
2022-11-03T20:10:01.496Z,7.01
2022-11-03T20:12:30.952Z,7.00
2022-11-03T20:15:00.474Z,7.05
2022-11-03T20:17:28.716Z,7.10
2022-11-03T20:19:57.221Z,7.09
2022-11-03T20:22:29.333Z,7.13
2022-11-03T20:24:59.523Z,7.13
2022-11-03T20:27:27.752Z,7.14
2022-11-03T20:29:56.198Z,7.20
2022-11-03T20:32:25.777Z,7.25
2022-11-03T20:34:54.044Z,7.27
2022-11-03T20:37:22.303Z,7.31
2022-11-03T20:39:50.963Z,7.32
2022-11-03T20:42:21.825Z,7.33
2022-11-03T20:44:50.126Z,7.35
2022-11-03T20:47:18.693Z,7.31
2022-11-03T20:49:48.694Z,7.27
2022-11-03T20:52:17.256Z,7.24
2022-11-03T20:54:46.341Z,7.22
2022-11-03T20:57:14.966Z,7.25
2022-11-03T20:59:43.113Z,7.22
2022-11-03T21:02:12.539Z,7.21
2022-11-03T21:04:41.100Z,7.15
2022-11-03T21:07:13.548Z,7.19
2022-11-03T21:09:41.777Z,7.12
2022-11-03T21:12:13.073Z,7.12
2022-11-03T21:15:03.233Z,7.17
2022-11-03T21:17:45.844Z,7.10
2022-11-03T21:20:14.044Z,7.03
2022-11-03T21:22:53.305Z,7.02
2022-11-03T21:25:23.539Z,6.99
2022-11-03T21:27:52.404Z,7.02
2022-11-03T21:30:21.055Z,7.02
2022-11-03T21:32:49.264Z,7.00
2022-11-03T21:35:19.417Z,7.01
2022-11-03T21:37:49.144Z,7.00
2022-11-03T21:40:17.813Z,6.99
2022-11-03T21:43:03.290Z,7.00
2022-11-03T21:45:31.454Z,6.95
2022-11-03T21:48:17.238Z,6.89
2022-11-03T21:50:46.456Z,6.93
2022-11-03T21:53:16.024Z,6.95
2022-11-03T21:55:44.245Z,6.97
2022-11-03T21:58:12.544Z,7.02
2022-11-03T22:00:40.845Z,6.95
2022-11-03T22:03:09.161Z,6.94
2022-11-03T22:05:38.404Z,6.88
2022-11-03T22:08:08.584Z,6.85
2022-11-03T22:10:40.924Z,6.90
2022-11-03T22:13:10.030Z,6.77
2022-11-03T22:15:56.089Z,6.76
2022-11-03T22:18:24.776Z,6.74
2022-11-03T22:21:10.922Z,6.75
2022-11-03T22:24:08.145Z,6.69
2022-11-03T22:26:52.025Z,6.66
2022-11-03T22:29:37.573Z,6.64
2022-11-03T22:32:07.094Z,6.57
2022-11-03T22:34:52.637Z,6.54
2022-11-03T22:37:21.060Z,6.52
2022-11-03T22:40:06.683Z,6.54
2022-11-03T22:42:53.914Z,6.54
2022-11-03T22:45:39.664Z,6.56
2022-11-03T22:48:08.213Z,6.53
2022-11-03T22:50:36.309Z,6.51
2022-11-03T22:53:25.269Z,6.51
2022-11-03T22:55:52.677Z,6.52
2022-11-03T22:58:24.337Z,6.59
2022-11-03T23:00:56.215Z,6.61
2022-11-03T23:03:24.327Z,6.66
2022-11-03T23:05:52.478Z,6.68
2022-11-03T23:08:20.651Z,6.75
2022-11-03T23:10:48.868Z,6.79
2022-11-03T23:13:17.288Z,6.84
2022-11-03T23:15:46.828Z,6.89
2022-11-03T23:18:37.528Z,6.90
2022-11-03T23:21:08.592Z,7.00
2022-11-03T23:23:54.848Z,6.95
2022-11-03T23:26:24.006Z,6.84
2022-11-03T23:28:52.386Z,6.87
2022-11-03T23:31:21.898Z,6.88
2022-11-03T23:33:50.084Z,6.90
2022-11-03T23:36:18.757Z,6.83
2022-11-03T23:38:47.387Z,6.85
2022-11-03T23:41:16.814Z,6.87
2022-11-03T23:43:46.482Z,6.88
2022-11-03T23:46:34.227Z,6.83
2022-11-03T23:49:04.058Z,6.87
2022-11-03T23:51:33.146Z,6.89
2022-11-03T23:54:01.830Z,6.92
2022-11-03T23:56:49.718Z,6.94
2022-11-03T23:59:18.265Z,6.98
